createdAt,value
2023-05-10T00:00:21.564Z,2.78
2023-05-10T00:02:48.330Z,3.05
2023-05-10T00:05:15.338Z,2.78
2023-05-10T00:07:42.046Z,3.05
2023-05-10T00:10:08.944Z,3.20
2023-05-10T00:12:35.498Z,3.35
2023-05-10T00:15:02.312Z,3.22
2023-05-10T00:17:28.904Z,3.10
2023-05-10T00:19:55.869Z,3.20
2023-05-10T00:22:22.675Z,3.10
2023-05-10T00:24:49.278Z,3.22
2023-05-10T00:27:15.936Z,3.42
2023-05-10T00:29:42.487Z,3.67
2023-05-10T00:32:09.328Z,2.97
2023-05-10T00:34:35.953Z,3.70
2023-05-10T00:37:02.550Z,3.08
2023-05-10T00:39:29.634Z,3.35
2023-05-10T00:41:56.369Z,3.20
2023-05-10T00:44:23.027Z,3.22
2023-05-10T00:46:50.378Z,3.37
2023-05-10T00:49:17.678Z,3.10
2023-05-10T00:51:45.601Z,3.35
2023-05-10T00:54:13.338Z,3.00
2023-05-10T00:56:41.368Z,3.03
2023-05-10T00:59:09.700Z,3.53
2023-05-10T01:01:37.210Z,2.97
2023-05-10T01:04:04.436Z,3.00
2023-05-10T01:06:31.138Z,2.90
2023-05-10T01:08:57.802Z,3.00
2023-05-10T01:13:59.888Z,2.90
2023-05-10T01:16:40.296Z,2.65
2023-05-10T01:19:29.990Z,2.97
2023-05-10T01:25:53.902Z,2.58
2023-05-10T01:28:52.083Z,2.90
2023-05-10T01:31:37.367Z,2.75
2023-05-10T01:34:10.330Z,2.60
2023-05-10T01:36:52.307Z,2.85
2023-05-10T01:44:41.303Z,2.83
2023-05-10T01:47:14.096Z,2.65
2023-05-10T01:50:03.629Z,3.08
2023-05-10T01:52:37.729Z,3.22
2023-05-10T01:55:08.727Z,2.53
2023-05-10T02:01:27.167Z,2.92
2023-05-10T02:03:54.787Z,3.58
2023-05-10T02:06:23.150Z,3.05
2023-05-10T02:08:50.872Z,2.85
2023-05-10T02:11:19.251Z,3.22
2023-05-10T02:13:48.303Z,3.08
2023-05-10T02:16:36.339Z,3.45
2023-05-10T02:19:03.767Z,2.78
2023-05-10T02:21:32.311Z,3.12
2023-05-10T02:24:01.388Z,2.78
2023-05-10T02:26:59.320Z,3.20
2023-05-10T02:29:52.104Z,3.12
2023-05-10T02:32:19.870Z,2.90
2023-05-10T02:34:52.703Z,2.90
2023-05-10T02:37:23.576Z,3.10
2023-05-10T02:39:51.860Z,2.90
2023-05-10T02:42:20.763Z,3.35
2023-05-10T02:45:13.093Z,3.53
2023-05-10T02:47:40.993Z,2.85
2023-05-10T02:50:08.492Z,2.97
2023-05-10T02:52:47.736Z,3.50
2023-05-10T02:55:46.180Z,3.15
2023-05-10T02:59:09.251Z,2.85
2023-05-10T03:01:36.184Z,2.90
2023-05-10T03:04:02.758Z,3.17
2023-05-10T03:06:29.667Z,3.30
2023-05-10T03:17:16.931Z,3.33
2023-05-10T03:19:55.288Z,3.80
2023-05-10T03:22:29.580Z,3.90
2023-05-10T03:24:58.645Z,3.72
2023-05-10T03:27:27.927Z,3.22
2023-05-10T03:42:57.172Z,3.60
2023-05-10T03:45:41.453Z,4.00
2023-05-10T03:48:56.346Z,3.17
2023-05-10T03:51:23.287Z,3.85
2023-05-10T03:53:49.878Z,3.70
2023-05-10T03:56:16.481Z,3.53
2023-05-10T05:04:04.919Z,5.45
2023-05-10T07:03:40.283Z,3.60
2023-05-10T07:25:01.336Z,3.15
2023-05-10T07:27:27.915Z,2.90
2023-05-10T07:29:55.596Z,2.50
2023-05-10T09:05:08.381Z,2.75
2023-05-10T09:08:04.404Z,2.60
2023-05-10T09:10:32.133Z,2.60
2023-05-10T09:12:59.700Z,2.33
2023-05-10T09:26:17.799Z,2.60
2023-05-10T09:31:26.247Z,2.30
2023-05-10T09:41:03.749Z,2.50
2023-05-10T09:50:20.683Z,2.45
2023-05-10T09:52:51.998Z,2.30
2023-05-10T10:10:34.594Z,2.25
2023-05-10T10:13:04.232Z,2.10
2023-05-10T10:15:34.960Z,2.40
2023-05-10T10:20:43.498Z,2.50
2023-05-10T10:23:10.716Z,1.98
2023-05-10T10:25:39.022Z,1.98
2023-05-10T10:28:28.460Z,2.05
2023-05-10T10:30:56.804Z,1.80
2023-05-10T10:37:09.323Z,1.90
2023-05-10T10:39:51.471Z,1.83
2023-05-10T10:42:53.010Z,2.10
2023-05-10T10:45:19.940Z,2.05
2023-05-10T10:47:46.753Z,1.80
2023-05-10T10:50:19.978Z,2.10
2023-05-10T10:52:47.277Z,2.05
2023-05-10T10:55:16.278Z,1.80
2023-05-10T10:57:53.268Z,1.70
2023-05-10T11:00:34.014Z,1.80
2023-05-10T11:03:08.312Z,1.60
2023-05-10T11:05:37.831Z,1.42
2023-05-10T11:08:17.269Z,1.52
2023-05-10T11:10:52.965Z,1.70
2023-05-10T11:13:30.955Z,1.73
2023-05-10T11:15:58.446Z,1.85
2023-05-10T11:18:30.053Z,2.30
2023-05-10T11:21:00.841Z,2.12
2023-05-10T11:26:12.844Z,2.50
2023-05-10T11:28:44.418Z,2.03
2023-05-10T11:31:11.398Z,1.87
2023-05-10T11:33:48.974Z,1.70
2023-05-10T11:36:21.437Z,1.42
2023-05-10T11:39:48.277Z,1.83
2023-05-10T11:42:46.400Z,1.62
2023-05-10T11:45:35.010Z,1.80
2023-05-10T11:48:02.659Z,1.65
2023-05-10T11:50:29.580Z,1.52
2023-05-10T11:52:57.551Z,1.30
2023-05-10T11:55:25.264Z,1.55
2023-05-10T12:00:48.311Z,1.60
2023-05-10T12:03:18.245Z,1.70
2023-05-10T12:05:44.887Z,1.52
2023-05-10T12:08:46.953Z,1.37
2023-05-10T12:11:32.997Z,1.52
2023-05-10T12:14:16.581Z,1.50
2023-05-10T12:16:45.669Z,1.58
2023-05-10T12:19:12.672Z,1.52
2023-05-10T12:21:52.992Z,1.70
2023-05-10T12:24:20.218Z,1.50
2023-05-10T12:32:40.532Z,1.50
2023-05-10T12:35:08.880Z,1.40
2023-05-10T12:37:40.157Z,1.40
2023-05-10T12:45:31.611Z,1.42
2023-05-10T12:47:58.182Z,1.50
2023-05-10T12:50:25.314Z,1.65
2023-05-10T12:52:51.936Z,1.20
2023-05-10T12:55:18.517Z,1.30
2023-05-10T12:57:45.054Z,1.95
2023-05-10T13:00:12.261Z,1.10
2023-05-10T13:02:38.929Z,1.20
2023-05-10T13:05:06.673Z,1.25
2023-05-10T13:07:33.294Z,1.17
2023-05-10T13:09:59.885Z,1.30
2023-05-10T13:12:26.468Z,1.10
2023-05-10T13:14:53.050Z,1.37
2023-05-10T13:17:19.733Z,1.25
2023-05-10T13:19:46.288Z,1.10
2023-05-10T13:22:12.871Z,1.20
2023-05-10T13:24:39.582Z,1.30
2023-05-10T13:27:06.567Z,1.17
2023-05-10T13:29:33.267Z,1.25
2023-05-10T13:31:59.998Z,0.90
2023-05-10T13:39:43.436Z,1.10
2023-05-10T13:42:10.140Z,1.30
2023-05-10T13:50:30.934Z,1.10
2023-05-10T13:55:24.233Z,1.10
2023-05-10T13:57:51.038Z,1.55
2023-05-10T14:00:17.925Z,1.10
2023-05-10T14:02:44.599Z,1.10
2023-05-10T14:05:11.444Z,1.35
2023-05-10T14:07:37.985Z,1.35
2023-05-10T14:10:04.937Z,1.40
2023-05-10T14:12:31.517Z,1.30
2023-05-10T14:14:59.173Z,1.17
2023-05-10T14:17:25.811Z,1.25
2023-05-10T14:19:53.569Z,1.40
2023-05-10T14:22:20.116Z,1.05
2023-05-10T14:24:47.936Z,1.60
2023-05-10T14:27:14.589Z,1.00
2023-05-10T14:29:41.179Z,1.25
2023-05-10T14:32:07.949Z,1.00
2023-05-10T14:34:34.636Z,1.40
2023-05-10T14:37:01.297Z,1.20
2023-05-10T14:40:05.633Z,1.05
2023-05-10T14:42:44.651Z,1.10
2023-05-10T14:45:12.246Z,1.10
2023-05-10T14:47:38.835Z,1.23
2023-05-10T14:50:06.071Z,1.00
2023-05-10T14:52:34.243Z,1.00
2023-05-10T14:55:02.284Z,1.50
2023-05-10T14:57:30.710Z,1.10
2023-05-10T14:59:57.996Z,1.10
2023-05-10T15:02:25.031Z,1.10
2023-05-10T15:04:52.078Z,1.10
2023-05-10T15:07:19.327Z,1.17
2023-05-10T15:09:46.352Z,1.10
2023-05-10T15:12:14.116Z,1.00
2023-05-10T15:14:40.698Z,1.00
2023-05-10T15:17:08.472Z,1.08
2023-05-10T15:19:36.244Z,1.00
2023-05-10T15:22:03.649Z,0.93
2023-05-10T15:24:30.223Z,1.05
2023-05-10T15:26:57.130Z,1.00
2023-05-10T15:29:23.775Z,1.08
2023-05-10T15:31:51.801Z,1.00
2023-05-10T15:34:19.283Z,1.00
2023-05-10T15:36:47.272Z,1.00
2023-05-10T15:39:13.870Z,1.08
2023-05-10T15:41:40.454Z,1.10
2023-05-10T15:44:07.212Z,1.02
2023-05-10T15:46:33.901Z,1.10
2023-05-10T15:49:00.535Z,1.10
2023-05-10T15:51:27.187Z,1.00
2023-05-10T15:54:05.822Z,1.00
2023-05-10T15:56:34.592Z,0.80
2023-05-10T15:59:01.218Z,1.02
2023-05-10T16:01:28.631Z,1.30
2023-05-10T16:03:55.280Z,1.05
2023-05-10T16:06:21.829Z,1.00
2023-05-10T16:08:48.652Z,0.90
2023-05-10T16:11:15.462Z,1.12
2023-05-10T16:13:42.038Z,1.17
2023-05-10T16:16:09.008Z,1.40
2023-05-10T16:18:36.045Z,1.65
2023-05-10T16:21:02.812Z,1.02
2023-05-10T16:23:29.920Z,1.00
2023-05-10T16:25:56.528Z,1.35
2023-05-10T16:29:12.923Z,1.83
2023-05-10T16:32:21.493Z,1.20
2023-05-10T16:34:48.102Z,1.00
2023-05-10T16:37:14.614Z,1.30
2023-05-10T16:39:41.223Z,1.58
2023-05-10T16:42:07.995Z,1.77
2023-05-10T16:44:34.690Z,1.60
2023-05-10T16:47:20.312Z,1.40
2023-05-10T16:49:46.919Z,1.37
2023-05-10T16:52:13.942Z,1.33
2023-05-10T16:54:40.532Z,1.48
2023-05-10T16:57:25.983Z,1.45
2023-05-10T17:03:29.743Z,1.60
2023-05-10T17:05:56.437Z,1.20
2023-05-10T17:08:23.224Z,1.42
2023-05-10T17:10:49.886Z,1.40
2023-05-10T17:13:17.271Z,1.35
2023-05-10T17:15:45.863Z,1.58
2023-05-10T17:18:12.494Z,1.52
2023-05-10T17:20:39.030Z,1.27
2023-05-10T17:23:05.650Z,1.50
2023-05-10T17:25:32.253Z,1.62
2023-05-10T17:27:58.848Z,1.50
2023-05-10T17:30:28.129Z,1.45
2023-05-10T17:33:05.560Z,1.62
2023-05-10T17:36:25.109Z,1.50
2023-05-10T17:39:10.593Z,1.60
2023-05-10T17:41:37.316Z,1.77
2023-05-10T17:44:03.865Z,1.52
2023-05-10T17:46:30.399Z,1.50
2023-05-10T17:49:18.746Z,1.45
2023-05-10T17:52:07.424Z,1.77
2023-05-10T17:54:34.053Z,1.80
2023-05-10T17:57:03.985Z,1.45
2023-05-10T17:59:30.658Z,1.70
2023-05-10T18:08:41.792Z,1.77
2023-05-10T18:11:08.394Z,1.55
2023-05-10T18:13:35.212Z,1.80
2023-05-10T18:16:01.827Z,1.70
2023-05-10T18:18:28.417Z,1.75
2023-05-10T18:20:57.733Z,1.60
2023-05-10T18:28:42.052Z,1.90
2023-05-10T18:31:09.938Z,2.53
2023-05-10T18:33:36.598Z,1.77
2023-05-10T18:36:04.175Z,1.52
2023-05-10T18:38:49.538Z,1.58
2023-05-10T18:41:45.624Z,1.73
2023-05-10T18:44:12.240Z,2.00
2023-05-10T18:46:39.075Z,1.80
2023-05-10T18:49:11.598Z,1.73
2023-05-10T18:51:38.169Z,1.50
2023-05-10T18:54:07.415Z,1.80
2023-05-10T18:56:34.290Z,2.00
2023-05-10T18:59:00.949Z,1.70
2023-05-10T19:01:27.525Z,1.65
2023-05-10T19:03:54.094Z,1.62
2023-05-10T19:06:21.204Z,1.87
2023-05-10T19:08:47.749Z,1.67
2023-05-10T19:11:14.308Z,1.60
2023-05-10T19:13:40.888Z,1.30
2023-05-10T19:16:14.578Z,1.58
2023-05-10T19:18:41.263Z,1.70
2023-05-10T19:21:09.981Z,1.90
2023-05-10T19:23:39.270Z,1.85
2023-05-10T19:26:06.289Z,1.60
2023-05-10T19:28:32.872Z,1.90
2023-05-10T19:31:00.980Z,1.70
2023-05-10T19:33:29.941Z,1.70
2023-05-10T19:35:56.613Z,1.60
2023-05-10T19:38:26.149Z,1.40
2023-05-10T19:40:58.300Z,1.60
2023-05-10T19:43:32.737Z,1.73
2023-05-10T19:46:02.158Z,1.70
2023-05-10T19:48:29.162Z,1.60
2023-05-10T19:51:01.122Z,1.52
2023-05-10T19:53:28.133Z,1.83
2023-05-10T19:58:56.551Z,2.05
2023-05-10T20:01:23.350Z,1.60
2023-05-10T20:03:49.992Z,1.70
2023-05-10T20:06:16.646Z,1.55
2023-05-10T20:08:43.595Z,1.55
2023-05-10T20:11:32.480Z,1.67
2023-05-10T20:22:59.435Z,1.73
2023-05-10T20:25:28.981Z,2.00
2023-05-10T20:28:00.819Z,1.90
2023-05-10T20:30:27.555Z,1.70
2023-05-10T20:32:54.322Z,1.62
2023-05-10T20:35:20.960Z,1.62
2023-05-10T20:37:48.558Z,1.48
2023-05-10T20:40:15.790Z,1.75
2023-05-10T20:45:17.907Z,1.85
2023-05-10T20:47:44.537Z,1.60
2023-05-10T20:50:17.387Z,1.98
2023-05-10T20:52:44.396Z,1.60
2023-05-10T20:55:11.050Z,1.73
2023-05-10T20:57:37.677Z,1.90
2023-05-10T21:00:06.028Z,1.80
2023-05-10T21:02:32.764Z,1.70
2023-05-10T21:05:01.724Z,1.83
2023-05-10T21:07:28.461Z,2.05
2023-05-10T21:09:55.075Z,2.25
2023-05-10T21:12:22.036Z,2.08
2023-05-10T21:14:48.594Z,1.60
2023-05-10T21:17:15.661Z,1.87
2023-05-10T21:19:43.128Z,2.00
2023-05-10T21:22:09.764Z,1.90
2023-05-10T21:24:51.775Z,2.03
2023-05-10T21:48:40.653Z,1.80
2023-05-10T21:51:07.355Z,1.77
2023-05-10T21:53:47.964Z,1.60
2023-05-10T21:56:49.072Z,1.60
2023-05-10T21:59:18.500Z,1.73
2023-05-10T22:15:17.516Z,1.70
2023-05-10T22:17:44.099Z,1.62
2023-05-10T22:20:12.700Z,1.65
2023-05-10T22:22:42.510Z,1.90
2023-05-10T22:25:09.317Z,2.22
2023-05-10T22:27:36.668Z,1.77
2023-05-10T22:30:04.287Z,2.10
2023-05-10T22:32:31.959Z,2.20
2023-05-10T22:34:58.624Z,1.83
2023-05-10T22:37:49.415Z,1.80
2023-05-10T22:41:14.151Z,1.92
2023-05-10T22:43:40.769Z,1.90
2023-05-10T22:46:07.453Z,2.15
2023-05-10T22:48:35.077Z,2.15
2023-05-10T22:51:01.694Z,2.35
2023-05-10T22:53:28.303Z,2.03
2023-05-10T22:56:22.898Z,2.03
2023-05-10T22:59:11.442Z,1.85
2023-05-10T23:01:38.043Z,2.10
2023-05-10T23:04:04.765Z,2.10
2023-05-10T23:10:49.579Z,1.98
2023-05-10T23:13:16.122Z,2.10
2023-05-10T23:15:43.604Z,2.03
2023-05-10T23:18:10.332Z,2.12
2023-05-10T23:20:36.985Z,2.08
2023-05-10T23:23:03.539Z,2.10
2023-05-10T23:28:32.354Z,2.20
2023-05-10T23:30:59.013Z,2.10
2023-05-10T23:40:21.383Z,2.00
2023-05-10T23:42:48.152Z,2.12
2023-05-10T23:45:17.861Z,1.83
2023-05-10T23:47:44.651Z,2.20
2023-05-10T23:50:19.387Z,2.20
